Time,TemperatureF,DewpointF,PressureIn,WindDirection,WindDirectionDegrees,WindSpeedMPH,WindSpeedGustMPH,Humidity,HourlyPrecipIn,Conditions,Clouds,dailyrainin,SoftwareType,DateUTC
2013-01-31 00:00:00,53.1,52.5,29.35,North,0,0.0,0.0,98,0.00,,OVC008,0.04,VWS V13.01,2013-01-31 05:00:00,
2013-01-31 00:01:00,53.1,52.5,29.35,North,0,0.0,0.0,98,0.00,,OVC008,0.04,VWS V13.01,2013-01-31 05:01:00,
2013-01-31 00:06:00,53.4,52.9,29.35,North,0,0.0,0.0,98,0.04,,OVC008,0.04,VWS V13.01,2013-01-31 05:06:00,
2013-01-31 00:11:00,53.2,52.7,29.32,North,0,0.0,0.0,98,0.04,,OVC008,0.04,VWS V13.01,2013-01-31 05:11:00,
2013-01-31 00:16:00,53.2,52.7,29.32,North,0,0.0,0.0,98,0.04,,OVC008,0.04,VWS V13.01,2013-01-31 05:16:00,
2013-01-31 00:21:00,53.1,52.5,29.32,North,0,0.0,0.0,98,0.08,,OVC008,0.08,VWS V13.01,2013-01-31 05:21:00,
2013-01-31 00:26:00,53.1,52.5,29.29,North,0,0.0,0.0,98,0.08,,OVC008,0.08,VWS V13.01,2013-01-31 05:26:00,
2013-01-31 00:31:00,53.4,52.9,29.29,North,0,0.0,0.0,98,0.08,,OVC008,0.08,VWS V13.01,2013-01-31 05:31:00,
2013-01-31 00:36:00,53.6,52.8,29.29,North,0,0.0,0.0,97,0.08,,OVC008,0.08,VWS V13.01,2013-01-31 05:36:00,
2013-01-31 00:41:00,53.8,53.0,29.29,North,0,0.0,0.0,97,0.08,,OVC008,0.08,VWS V13.01,2013-01-31 05:41:00,
2013-01-31 00:46:00,54.0,53.1,29.29,North,0,0.0,0.0,97,0.08,,OVC008,0.08,VWS V13.01,2013-01-31 05:46:00,
2013-01-31 00:51:00,54.3,53.5,29.26,North,0,0.0,0.0,97,0.08,,OVC008,0.12,VWS V13.01,2013-01-31 05:51:00,
2013-01-31 00:56:00,54.7,53.8,29.26,North,0,0.0,0.0,97,0.12,,OVC008,0.12,VWS V13.01,2013-01-31 05:56:00,
2013-01-31 01:01:00,54.9,54.0,29.26,North,0,0.0,0.0,97,0.12,,OVC010,0.12,VWS V13.01,2013-01-31 06:01:00,
2013-01-31 01:06:00,55.0,54.2,29.26,North,0,0.0,0.0,97,0.12,,OVC010,0.12,VWS V13.01,2013-01-31 06:06:00,
2013-01-31 01:12:00,55.4,54.6,29.26,North,0,0.0,0.0,97,0.12,,OVC010,0.16,VWS V13.01,2013-01-31 06:12:00,
2013-01-31 01:17:00,55.6,54.8,29.26,North,0,0.0,0.0,97,0.12,,OVC010,0.16,VWS V13.01,2013-01-31 06:17:00,
2013-01-31 01:21:00,55.8,54.9,29.26,North,0,0.0,0.0,97,0.08,,OVC010,0.16,VWS V13.01,2013-01-31 06:21:00,
2013-01-31 01:27:00,56.1,55.3,29.23,North,0,0.0,0.0,97,0.08,,OVC010,0.16,VWS V13.01,2013-01-31 06:27:00,
2013-01-31 01:32:00,56.1,55.3,29.23,North,0,0.0,0.0,97,0.08,,OVC010,0.16,VWS V13.01,2013-01-31 06:32:00,
2013-01-31 01:37:00,56.3,55.5,29.23,North,0,0.0,0.0,97,0.08,,OVC010,0.16,VWS V13.01,2013-01-31 06:37:00,
2013-01-31 01:42:00,56.3,55.5,29.23,North,0,0.0,0.0,97,0.08,,OVC012,0.16,VWS V13.01,2013-01-31 06:42:00,
2013-01-31 01:47:00,56.3,55.5,29.23,North,0,0.0,0.0,97,0.12,,OVC012,0.20,VWS V13.01,2013-01-31 06:47:00,
2013-01-31 01:52:00,56.7,55.8,29.20,North,0,0.0,0.0,97,0.12,,OVC012,0.20,VWS V13.01,2013-01-31 06:52:00,
2013-01-31 01:57:00,56.8,56.0,29.20,North,0,0.0,0.0,97,0.16,,OVC012,0.24,VWS V13.01,2013-01-31 06:57:00,
2013-01-31 02:02:00,56.8,56.0,29.20,North,0,0.0,0.0,97,0.12,,OVC012,0.24,VWS V13.01,2013-01-31 07:02:00,
2013-01-31 02:07:00,56.8,56.0,29.20,North,0,0.0,0.0,97,0.12,,OVC012,0.24,VWS V13.01,2013-01-31 07:07:00,
2013-01-31 02:12:00,57.0,56.2,29.20,North,0,0.0,0.0,97,0.12,,OVC012,0.28,VWS V13.01,2013-01-31 07:12:00,
2013-01-31 02:17:00,57.2,56.4,29.20,North,0,0.0,0.0,97,0.12,,OVC012,0.28,VWS V13.01,2013-01-31 07:17:00,
2013-01-31 02:22:00,57.2,56.4,29.17,North,0,0.0,0.0,97,0.12,,OVC012,0.28,VWS V13.01,2013-01-31 07:22:00,
2013-01-31 02:27:00,57.4,56.5,29.17,North,0,0.0,0.0,97,0.12,,OVC012,0.28,VWS V13.01,2013-01-31 07:27:00,
2013-01-31 02:32:00,57.4,56.5,29.17,North,0,0.0,0.0,97,0.12,,OVC012,0.28,VWS V13.01,2013-01-31 07:32:00,
2013-01-31 02:37:00,57.6,56.7,29.14,North,0,0.0,0.0,97,0.16,,OVC012,0.31,VWS V13.01,2013-01-31 07:37:00,
2013-01-31 02:42:00,57.6,56.7,29.14,North,0,0.0,0.0,97,0.16,,OVC019,0.31,VWS V13.01,2013-01-31 07:42:00,
2013-01-31 02:47:00,57.6,56.7,29.14,North,0,0.0,0.0,97,0.16,,OVC019,0.31,VWS V13.01,2013-01-31 07:47:00,
2013-01-31 02:52:00,57.6,56.7,29.14,North,0,0.0,0.0,97,0.12,,OVC019,0.31,VWS V13.01,2013-01-31 07:52:00,
2013-01-31 02:57:00,57.7,56.9,29.11,North,0,0.0,0.0,97,0.12,,OVC019,0.31,VWS V13.01,2013-01-31 07:57:00,
2013-01-31 03:02:00,57.7,56.9,29.11,North,0,0.0,0.0,97,0.08,,OVC027,0.31,VWS V13.01,2013-01-31 08:02:00,
2013-01-31 03:07:00,57.7,56.9,29.11,North,0,0.0,0.0,97,0.08,,OVC027,0.31,VWS V13.01,2013-01-31 08:07:00,
2013-01-31 03:12:00,57.9,57.1,29.11,North,0,0.0,0.0,97,0.08,,OVC027,0.31,VWS V13.01,2013-01-31 08:12:00,
2013-01-31 03:17:00,57.9,57.1,29.11,North,0,0.0,0.0,97,0.08,,OVC027,0.31,VWS V13.01,2013-01-31 08:17:00,
2013-01-31 03:22:00,57.9,57.1,29.08,North,0,0.0,0.0,97,0.04,,OVC027,0.31,VWS V13.01,2013-01-31 08:22:00,
2013-01-31 03:27:00,57.9,57.1,29.08,North,0,0.0,0.0,97,0.04,,OVC027,0.31,VWS V13.01,2013-01-31 08:27:00,
2013-01-31 03:32:00,57.9,57.1,29.08,North,0,0.0,0.0,97,0.04,,OVC027,0.31,VWS V13.01,2013-01-31 08:32:00,
2013-01-31 03:37:00,58.1,57.3,29.05,North,0,0.0,0.0,97,0.04,,OVC027,0.31,VWS V13.01,2013-01-31 08:37:00,
2013-01-31 03:42:00,58.1,57.3,29.05,North,0,0.0,0.0,97,0.04,,OVC020,0.35,VWS V13.01,2013-01-31 08:42:00,
2013-01-31 03:47:00,58.1,57.3,29.05,North,0,0.0,0.0,97,0.04,,OVC020,0.35,VWS V13.01,2013-01-31 08:47:00,
2013-01-31 03:52:00,58.3,57.4,29.02,North,0,0.0,0.0,97,0.04,,OVC020,0.35,VWS V13.01,2013-01-31 08:52:00,
2013-01-31 03:57:00,58.5,57.6,29.02,North,0,0.0,0.0,97,0.04,,OVC020,0.35,VWS V13.01,2013-01-31 08:57:00,
2013-01-31 04:02:00,58.5,57.6,29.02,North,0,0.0,0.0,97,0.04,,OVC024,0.35,VWS V13.01,2013-01-31 09:02:00,
2013-01-31 04:07:00,58.6,57.8,28.99,North,0,0.0,0.0,97,0.04,,OVC024,0.35,VWS V13.01,2013-01-31 09:07:00,
2013-01-31 04:12:00,58.6,57.8,28.99,North,0,0.0,0.0,97,0.04,,OVC024,0.35,VWS V13.01,2013-01-31 09:12:00,
2013-01-31 04:17:00,58.8,58.0,28.99,North,0,0.0,0.0,97,0.04,,OVC024,0.35,VWS V13.01,2013-01-31 09:17:00,
2013-01-31 04:22:00,59.0,57.9,28.96,North,0,0.0,0.0,96,0.04,,OVC024,0.35,VWS V13.01,2013-01-31 09:22:00,
2013-01-31 04:27:00,59.0,57.9,28.96,North,0,0.0,0.0,96,0.04,,OVC024,0.35,VWS V13.01,2013-01-31 09:27:00,
2013-01-31 04:32:00,59.4,58.2,28.96,North,0,0.0,0.0,96,0.12,,OVC024,0.43,VWS V13.01,2013-01-31 09:32:00,
2013-01-31 04:37:00,59.5,58.4,28.96,North,0,0.0,0.0,96,0.12,,OVC024,0.43,VWS V13.01,2013-01-31 09:37:00,
2013-01-31 04:42:00,59.7,58.6,28.96,North,0,0.0,0.0,96,0.12,,OVC025,0.43,VWS V13.01,2013-01-31 09:42:00,
2013-01-31 04:47:00,59.7,58.6,28.96,North,0,0.0,0.0,96,0.16,,OVC025,0.47,VWS V13.01,2013-01-31 09:47:00,
2013-01-31 04:52:00,59.9,58.8,28.93,North,0,0.0,0.0,96,0.16,,OVC025,0.51,VWS V13.01,2013-01-31 09:52:00,
2013-01-31 04:57:00,60.1,58.9,28.93,North,0,0.0,0.0,96,0.20,,OVC025,0.55,VWS V13.01,2013-01-31 09:57:00,
2013-01-31 05:02:00,60.1,58.9,28.93,North,0,0.0,0.0,96,0.20,,OVC027,0.55,VWS V13.01,2013-01-31 10:02:00,
2013-01-31 05:07:00,60.1,58.9,28.93,North,0,0.0,0.0,96,0.24,,OVC027,0.59,VWS V13.01,2013-01-31 10:07:00,
2013-01-31 05:12:00,60.3,59.1,28.93,North,0,0.0,0.0,96,0.24,,OVC027,0.59,VWS V13.01,2013-01-31 10:12:00,
2013-01-31 05:17:00,60.1,58.9,28.93,North,0,0.0,0.0,96,0.28,,OVC027,0.63,VWS V13.01,2013-01-31 10:17:00,
2013-01-31 05:22:00,60.3,59.1,28.96,North,0,0.0,0.0,96,0.31,,OVC027,0.67,VWS V13.01,2013-01-31 10:22:00,
2013-01-31 05:27:00,60.1,58.9,28.96,North,0,0.0,0.0,96,0.35,,OVC027,0.71,VWS V13.01,2013-01-31 10:27:00,
2013-01-31 05:32:00,59.9,58.8,28.96,North,0,0.0,0.0,96,0.39,,OVC027,0.75,VWS V13.01,2013-01-31 10:32:00,
2013-01-31 05:37:00,59.7,58.6,28.96,North,0,0.0,0.0,96,0.39,,OVC027,0.75,VWS V13.01,2013-01-31 10:37:00,
2013-01-31 05:42:00,59.5,58.1,28.96,North,0,0.0,0.0,95,0.35,,OVC025,0.79,VWS V13.01,2013-01-31 10:42:00,
2013-01-31 05:47:00,59.4,57.9,28.96,North,0,0.0,0.0,95,0.35,,OVC025,0.79,VWS V13.01,2013-01-31 10:47:00,
2013-01-31 05:52:00,59.0,57.6,28.96,North,0,0.0,0.0,95,0.28,,OVC025,0.79,VWS V13.01,2013-01-31 10:52:00,
2013-01-31 05:57:00,59.2,57.8,28.96,North,0,0.0,0.0,95,0.28,,OVC025,0.79,VWS V13.01,2013-01-31 10:57:00,
2013-01-31 06:02:00,59.0,57.6,28.96,North,0,0.0,0.0,95,0.24,,OVC033,0.79,VWS V13.01,2013-01-31 11:02:00,
2013-01-31 06:07:00,58.8,57.4,28.96,North,0,0.0,0.0,95,0.24,,OVC033,0.79,VWS V13.01,2013-01-31 11:07:00,
2013-01-31 06:12:00,58.8,57.4,28.96,North,0,0.0,0.0,95,0.20,,OVC033,0.79,VWS V13.01,2013-01-31 11:12:00,
2013-01-31 06:17:00,58.8,57.4,28.96,North,0,0.0,0.0,95,0.20,,OVC033,0.83,VWS V13.01,2013-01-31 11:17:00,
2013-01-31 06:22:00,58.8,57.4,28.96,North,0,0.0,0.0,95,0.16,,OVC033,0.83,VWS V13.01,2013-01-31 11:22:00,
2013-01-31 06:27:00,58.6,57.2,28.96,North,0,0.0,0.0,95,0.16,,OVC033,0.83,VWS V13.01,2013-01-31 11:27:00,
2013-01-31 06:32:00,58.5,57.0,28.96,North,0,0.0,0.0,95,0.08,,OVC033,0.83,VWS V13.01,2013-01-31 11:32:00,
2013-01-31 06:37:00,58.3,56.9,28.93,North,0,0.0,0.0,95,0.08,,OVC033,0.83,VWS V13.01,2013-01-31 11:37:00,
2013-01-31 06:42:00,58.1,56.7,28.93,North,0,0.0,0.0,95,0.04,,BKN050,0.83,VWS V13.01,2013-01-31 11:42:00,
2013-01-31 06:47:00,57.9,56.2,28.93,North,0,0.0,0.0,94,0.04,,BKN050,0.83,VWS V13.01,2013-01-31 11:47:00,
2013-01-31 06:52:00,57.9,56.2,28.90,North,0,0.0,0.0,94,0.04,,BKN050,0.83,VWS V13.01,2013-01-31 11:52:00,
2013-01-31 06:57:00,57.7,56.0,28.90,North,0,0.0,0.0,94,0.04,,BKN050,0.83,VWS V13.01,2013-01-31 11:57:00,
2013-01-31 07:02:00,57.7,56.0,28.90,North,0,0.0,0.0,94,0.04,,OVC070,0.83,VWS V13.01,2013-01-31 12:02:00,
2013-01-31 07:07:00,57.6,55.8,28.90,North,0,0.0,0.0,94,0.04,,OVC070,0.83,VWS V13.01,2013-01-31 12:07:00,
2013-01-31 07:12:00,57.6,55.6,28.90,North,0,0.0,0.0,93,0.04,,OVC070,0.83,VWS V13.01,2013-01-31 12:12:00,
2013-01-31 07:17:00,57.4,55.4,28.90,North,0,0.0,0.0,93,0.04,,OVC070,0.83,VWS V13.01,2013-01-31 12:17:00,
2013-01-31 07:22:00,57.4,55.4,28.90,North,0,0.0,0.0,93,0.00,,OVC070,0.83,VWS V13.01,2013-01-31 12:22:00,
2013-01-31 07:27:00,57.4,55.4,28.90,North,0,0.0,0.0,93,0.00,,OVC070,0.83,VWS V13.01,2013-01-31 12:27:00,
2013-01-31 07:32:00,57.4,55.4,28.90,North,0,0.0,0.0,93,0.00,,OVC070,0.83,VWS V13.01,2013-01-31 12:32:00,
2013-01-31 07:37:00,57.4,55.4,28.87,North,0,0.0,0.0,93,0.00,,OVC070,0.83,VWS V13.01,2013-01-31 12:37:00,
2013-01-31 07:42:00,57.6,55.6,28.87,North,0,0.0,0.0,93,0.00,,OVC095,0.83,VWS V13.01,2013-01-31 12:42:00,
2013-01-31 07:47:00,52.7,50.7,28.87,North,0,0.0,0.0,93,0.04,,OVC095,0.87,VWS V13.01,2013-01-31 12:47:00,
2013-01-31 07:52:00,48.4,44.7,28.96,North,0,0.0,0.0,87,0.08,,OVC095,0.91,VWS V13.01,2013-01-31 12:52:00,
2013-01-31 07:57:00,46.2,42.0,28.96,North,0,0.0,0.0,85,0.12,,OVC095,0.94,VWS V13.01,2013-01-31 12:57:00,
2013-01-31 08:02:00,45.1,40.9,28.96,North,0,0.0,0.0,85,0.12,,BKN095,0.94,VWS V13.01,2013-01-31 13:02:00,
2013-01-31 08:07:00,44.6,40.7,28.99,North,0,0.0,0.0,86,0.12,,BKN095,0.94,VWS V13.01,2013-01-31 13:07:00,
2013-01-31 08:12:00,43.9,40.3,28.99,North,0,0.0,0.0,87,0.12,,BKN095,0.94,VWS V13.01,2013-01-31 13:12:00,
2013-01-31 08:17:00,43.3,39.7,28.99,North,0,0.0,0.0,87,0.12,,BKN095,0.94,VWS V13.01,2013-01-31 13:17:00,
2013-01-31 08:22:00,42.8,38.9,28.99,North,0,0.0,0.0,86,0.12,,BKN095,0.94,VWS V13.01,2013-01-31 13:22:00,
2013-01-31 08:27:00,42.6,38.7,28.99,North,0,0.0,0.0,86,0.12,,BKN095,0.94,VWS V13.01,2013-01-31 13:27:00,
2013-01-31 08:32:00,42.4,38.6,28.99,North,0,0.0,0.0,86,0.12,,BKN095,0.94,VWS V13.01,2013-01-31 13:32:00,
2013-01-31 08:37:00,42.6,38.4,29.02,North,0,0.0,0.0,85,0.12,,BKN095,0.94,VWS V13.01,2013-01-31 13:37:00,
2013-01-31 08:42:00,42.1,37.3,29.02,North,0,0.0,0.0,83,0.12,,OVC048,0.94,VWS V13.01,2013-01-31 13:42:00,
2013-01-31 08:47:00,41.7,35.0,29.02,North,0,0.0,0.0,77,0.12,,OVC048,0.94,VWS V13.01,2013-01-31 13:47:00,
2013-01-31 08:52:00,41.7,34.4,28.99,North,0,0.0,0.0,75,0.04,,OVC048,0.94,VWS V13.01,2013-01-31 13:52:00,
2013-01-31 08:57:00,41.5,33.9,28.99,North,0,0.0,0.0,74,0.04,,OVC048,0.94,VWS V13.01,2013-01-31 13:57:00,
2013-01-31 09:02:00,41.2,32.8,28.99,North,0,0.0,0.0,72,0.00,,OVC050,0.94,VWS V13.01,2013-01-31 14:02:00,
2013-01-31 09:07:00,41.0,31.3,29.02,North,0,0.0,0.0,68,0.00,,OVC050,0.94,VWS V13.01,2013-01-31 14:07:00,
2013-01-31 09:12:00,40.8,31.5,29.02,North,0,0.0,0.0,69,0.00,,OVC050,0.94,VWS V13.01,2013-01-31 14:12:00,
2013-01-31 09:17:00,40.6,31.3,29.02,North,0,0.0,0.0,69,0.00,,OVC050,0.94,VWS V13.01,2013-01-31 14:17:00,
2013-01-31 09:22:00,40.6,30.2,29.05,North,0,0.0,0.0,66,0.00,,OVC050,0.94,VWS V13.01,2013-01-31 14:22:00,
2013-01-31 09:27:00,40.6,29.4,29.05,North,0,0.0,0.0,64,0.00,,OVC050,0.94,VWS V13.01,2013-01-31 14:27:00,
2013-01-31 09:32:00,41.0,28.6,29.05,North,0,0.0,0.0,61,0.00,,OVC050,0.94,VWS V13.01,2013-01-31 14:32:00,
2013-01-31 09:37:00,41.5,26.6,29.05,North,0,0.0,0.0,55,0.00,,OVC050,0.94,VWS V13.01,2013-01-31 14:37:00,
2013-01-31 09:42:00,41.7,25.9,29.05,North,0,0.0,0.0,53,0.00,,OVC050,0.94,VWS V13.01,2013-01-31 14:42:00,
2013-01-31 09:47:00,41.9,24.1,29.05,North,0,0.0,0.0,49,0.00,,OVC050,0.94,VWS V13.01,2013-01-31 14:47:00,
2013-01-31 09:52:00,42.1,21.8,29.05,North,0,0.0,0.0,44,0.00,,OVC050,0.94,VWS V13.01,2013-01-31 14:52:00,
2013-01-31 09:57:00,42.4,23.6,29.05,North,0,0.0,0.0,47,0.00,,OVC050,0.94,VWS V13.01,2013-01-31 14:57:00,
2013-01-31 10:02:00,42.4,21.5,29.05,North,0,0.0,0.0,43,0.00,,OVC039,0.94,VWS V13.01,2013-01-31 15:02:00,
2013-01-31 10:08:00,42.1,19.5,29.05,North,0,0.0,0.0,40,0.00,,OVC039,0.94,VWS V13.01,2013-01-31 15:08:00,
2013-01-31 10:12:00,41.9,18.2,29.05,North,0,0.0,0.0,38,0.00,,OVC039,0.94,VWS V13.01,2013-01-31 15:12:00,
2013-01-31 10:17:00,41.7,16.1,29.05,North,0,0.0,0.0,35,0.00,,OVC039,0.94,VWS V13.01,2013-01-31 15:17:00,
2013-01-31 10:22:00,41.7,16.1,29.08,North,0,0.0,0.0,35,0.00,,OVC039,0.94,VWS V13.01,2013-01-31 15:22:00,
2013-01-31 10:28:00,41.5,15.3,29.08,North,0,0.0,0.0,34,0.00,,OVC039,0.94,VWS V13.01,2013-01-31 15:28:00,
2013-01-31 10:33:00,41.2,14.3,29.08,North,0,0.0,0.0,33,0.00,,OVC039,0.94,VWS V13.01,2013-01-31 15:33:00,
2013-01-31 10:38:00,41.0,14.8,29.11,North,0,0.0,0.0,34,0.00,,OVC039,0.94,VWS V13.01,2013-01-31 15:38:00,
2013-01-31 10:43:00,41.2,14.3,29.11,North,0,0.0,0.0,33,0.00,,OVC080,0.94,VWS V13.01,2013-01-31 15:43:00,
2013-01-31 10:48:00,42.3,15.9,29.11,North,0,0.0,0.0,34,0.00,,OVC080,0.94,VWS V13.01,2013-01-31 15:48:00,
2013-01-31 10:53:00,42.4,14.0,29.11,North,0,0.0,0.0,31,0.00,,OVC080,0.94,VWS V13.01,2013-01-31 15:53:00,
2013-01-31 10:58:00,42.8,14.3,29.11,North,0,0.0,0.0,31,0.00,,OVC080,0.94,VWS V13.01,2013-01-31 15:58:00,
2013-01-31 11:03:00,42.8,14.3,29.11,North,0,0.0,0.0,31,0.00,,OVC050,0.94,VWS V13.01,2013-01-31 16:03:00,
2013-01-31 11:08:00,42.4,13.2,29.14,North,0,0.0,0.0,30,0.00,,OVC050,0.94,VWS V13.01,2013-01-31 16:08:00,
2013-01-31 11:13:00,42.3,13.1,29.14,North,0,0.0,0.0,30,0.00,,OVC050,0.94,VWS V13.01,2013-01-31 16:13:00,
2013-01-31 11:18:00,42.1,12.1,29.14,North,0,0.0,0.0,29,0.00,,OVC050,0.94,VWS V13.01,2013-01-31 16:18:00,
2013-01-31 11:23:00,42.1,12.9,29.14,North,0,0.0,0.0,30,0.00,,OVC050,0.94,VWS V13.01,2013-01-31 16:23:00,
2013-01-31 11:28:00,41.4,11.5,29.14,North,0,0.0,0.0,29,0.00,,OVC050,0.94,VWS V13.01,2013-01-31 16:28:00,
2013-01-31 11:33:00,40.3,11.3,29.14,North,0,0.0,0.0,30,0.00,,OVC050,0.94,VWS V13.01,2013-01-31 16:33:00,
2013-01-31 11:38:00,40.1,11.2,29.17,North,0,0.0,0.0,30,0.00,,OVC050,0.94,VWS V13.01,2013-01-31 16:38:00,
2013-01-31 11:43:00,40.3,11.3,29.17,North,0,0.0,0.0,30,0.00,,OVC050,0.94,VWS V13.01,2013-01-31 16:43:00,
2013-01-31 11:48:00,40.3,11.3,29.17,North,0,0.0,0.0,30,0.00,,OVC050,0.94,VWS V13.01,2013-01-31 16:48:00,
2013-01-31 11:53:00,40.3,11.3,29.17,North,0,0.0,0.0,30,0.00,,OVC050,0.94,VWS V13.01,2013-01-31 16:53:00,
2013-01-31 11:58:00,40.3,11.3,29.17,North,0,0.0,0.0,30,0.00,,OVC050,0.94,VWS V13.01,2013-01-31 16:58:00,
2013-01-31 12:03:00,40.5,11.5,29.17,North,0,0.0,0.0,30,0.00,,OVC050,0.94,VWS V13.01,2013-01-31 17:03:00,
2013-01-31 12:08:00,41.0,11.2,29.17,North,0,0.0,0.0,29,0.00,,OVC050,0.94,VWS V13.01,2013-01-31 17:08:00,
2013-01-31 12:13:00,41.2,11.4,29.17,North,0,0.0,0.0,29,0.00,,OVC050,0.94,VWS V13.01,2013-01-31 17:13:00,
2013-01-31 12:18:00,41.5,11.7,29.17,North,0,0.0,0.0,29,0.00,,OVC050,0.94,VWS V13.01,2013-01-31 17:18:00,
2013-01-31 12:23:00,41.2,11.4,29.17,North,0,0.0,0.0,29,0.00,,OVC050,0.94,VWS V13.01,2013-01-31 17:23:00,
2013-01-31 12:28:00,40.6,10.9,29.17,North,0,0.0,0.0,29,0.00,,OVC050,0.94,VWS V13.01,2013-01-31 17:28:00,
2013-01-31 12:33:00,40.5,10.7,29.17,North,0,0.0,0.0,29,0.00,,OVC050,0.94,VWS V13.01,2013-01-31 17:33:00,
2013-01-31 12:38:00,39.7,10.1,29.17,North,0,0.0,0.0,29,0.00,,OVC050,0.94,VWS V13.01,2013-01-31 17:38:00,
2013-01-31 12:43:00,39.4,9.8,29.17,North,0,0.0,0.0,29,0.00,,BKN050,0.94,VWS V13.01,2013-01-31 17:43:00,
2013-01-31 12:48:00,38.8,9.3,29.17,North,0,0.0,0.0,29,0.00,,BKN050,0.94,VWS V13.01,2013-01-31 17:48:00,
2013-01-31 12:53:00,38.5,9.0,29.20,North,0,0.0,0.0,29,0.00,,BKN050,0.94,VWS V13.01,2013-01-31 17:53:00,
2013-01-31 12:58:00,39.0,9.5,29.20,North,0,0.0,0.0,29,0.00,,BKN050,0.94,VWS V13.01,2013-01-31 17:58:00,
2013-01-31 13:03:00,40.1,10.4,29.20,North,0,0.0,0.0,29,0.00,,OVC050,0.94,VWS V13.01,2013-01-31 18:03:00,
2013-01-31 13:08:00,40.8,10.2,29.20,North,0,0.0,0.0,28,0.00,,OVC050,0.94,VWS V13.01,2013-01-31 18:08:00,
2013-01-31 13:13:00,41.2,10.6,29.20,North,0,0.0,0.0,28,0.00,,OVC050,0.94,VWS V13.01,2013-01-31 18:13:00,
2013-01-31 13:18:00,40.6,8.4,29.20,North,0,0.0,0.0,26,0.00,,OVC050,0.94,VWS V13.01,2013-01-31 18:18:00,
2013-01-31 13:23:00,39.9,7.8,29.20,North,0,0.0,0.0,26,0.00,,OVC050,0.94,VWS V13.01,2013-01-31 18:23:00,
2013-01-31 13:28:00,40.3,8.1,29.20,North,0,0.0,0.0,26,0.00,,OVC050,0.94,VWS V13.01,2013-01-31 18:28:00,
2013-01-31 13:33:00,39.9,7.8,29.20,North,0,0.0,0.0,26,0.00,,OVC050,0.94,VWS V13.01,2013-01-31 18:33:00,
2013-01-31 13:38:00,39.2,7.2,29.23,North,0,0.0,0.0,26,0.00,,OVC050,0.94,VWS V13.01,2013-01-31 18:38:00,
2013-01-31 13:43:00,38.7,6.7,29.23,North,0,0.0,0.0,26,0.00,,BKN065,0.94,VWS V13.01,2013-01-31 18:43:00,
2013-01-31 13:48:00,38.7,9.2,29.23,North,0,0.0,0.0,29,0.00,,BKN065,0.94,VWS V13.01,2013-01-31 18:48:00,
2013-01-31 13:53:00,39.0,7.1,29.23,North,0,0.0,0.0,26,0.00,,BKN065,0.94,VWS V13.01,2013-01-31 18:53:00,
2013-01-31 13:59:00,38.5,6.6,29.23,North,0,0.0,0.0,26,0.00,,BKN065,0.94,VWS V13.01,2013-01-31 18:59:00,
2013-01-31 14:04:00,38.1,6.3,29.23,North,0,0.0,0.0,26,0.00,,OVC065,0.94,VWS V13.01,2013-01-31 19:04:00,
2013-01-31 14:09:00,37.6,5.8,29.23,North,0,0.0,0.0,26,0.00,,OVC065,0.94,VWS V13.01,2013-01-31 19:09:00,
2013-01-31 14:14:00,37.2,6.3,29.23,North,0,0.0,0.0,27,0.00,,OVC065,0.94,VWS V13.01,2013-01-31 19:14:00,
2013-01-31 14:19:00,36.9,6.0,29.23,North,0,0.0,0.0,27,0.00,,OVC065,0.94,VWS V13.01,2013-01-31 19:19:00,
2013-01-31 14:24:00,36.7,5.9,29.23,North,0,0.0,0.0,27,0.00,,OVC065,0.94,VWS V13.01,2013-01-31 19:24:00,
2013-01-31 14:29:00,36.7,5.9,29.23,North,0,0.0,0.0,27,0.00,,OVC065,0.94,VWS V13.01,2013-01-31 19:29:00,
2013-01-31 14:34:00,36.3,5.6,29.23,North,0,0.0,0.0,27,0.00,,OVC065,0.94,VWS V13.01,2013-01-31 19:34:00,
2013-01-31 14:39:00,36.1,5.4,29.26,North,0,0.0,0.0,27,0.00,,OVC065,0.94,VWS V13.01,2013-01-31 19:39:00,
2013-01-31 14:44:00,36.0,5.2,29.26,North,0,0.0,0.0,27,0.00,,BKN070,0.94,VWS V13.01,2013-01-31 19:44:00,
2013-01-31 14:49:00,35.8,5.1,29.26,North,0,0.0,0.0,27,0.00,,BKN070,0.94,VWS V13.01,2013-01-31 19:49:00,
2013-01-31 14:54:00,35.8,5.1,29.26,North,0,0.0,0.0,27,0.00,,BKN070,0.94,VWS V13.01,2013-01-31 19:54:00,
2013-01-31 14:59:00,35.6,4.9,29.26,North,0,0.0,0.0,27,0.00,,BKN070,0.94,VWS V13.01,2013-01-31 19:59:00,
2013-01-31 15:04:00,35.8,6.7,29.26,North,0,0.0,0.0,29,0.00,,BKN065,0.94,VWS V13.01,2013-01-31 20:04:00,
2013-01-31 15:09:00,36.1,5.4,29.29,North,0,0.0,0.0,27,0.00,,BKN065,0.94,VWS V13.01,2013-01-31 20:09:00,
2013-01-31 15:14:00,35.8,5.1,29.29,North,0,0.0,0.0,27,0.00,,BKN065,0.94,VWS V13.01,2013-01-31 20:14:00,
2013-01-31 15:19:00,35.6,6.5,29.29,North,0,0.0,0.0,29,0.00,,BKN065,0.94,VWS V13.01,2013-01-31 20:19:00,
2013-01-31 15:24:00,35.4,7.1,29.29,North,0,0.0,0.0,30,0.00,,BKN065,0.94,VWS V13.01,2013-01-31 20:24:00,
2013-01-31 15:29:00,35.2,6.9,29.29,North,0,0.0,0.0,30,0.00,,BKN065,0.94,VWS V13.01,2013-01-31 20:29:00,
2013-01-31 15:34:00,35.1,6.8,29.29,North,0,0.0,0.0,30,0.00,,BKN065,0.94,VWS V13.01,2013-01-31 20:34:00,
2013-01-31 15:39:00,35.1,6.8,29.29,North,0,0.0,0.0,30,0.00,,BKN065,0.94,VWS V13.01,2013-01-31 20:39:00,
2013-01-31 15:44:00,34.9,4.3,29.29,North,0,0.0,0.0,27,0.00,,BKN065,0.94,VWS V13.01,2013-01-31 20:44:00,
2013-01-31 15:49:00,34.7,4.2,29.29,North,0,0.0,0.0,27,0.00,,BKN065,0.94,VWS V13.01,2013-01-31 20:49:00,
2013-01-31 15:54:00,34.7,4.2,29.32,North,0,0.0,0.0,27,0.00,,BKN065,0.94,VWS V13.01,2013-01-31 20:54:00,
2013-01-31 15:59:00,34.5,4.0,29.32,North,0,0.0,0.0,27,0.00,,BKN065,0.94,VWS V13.01,2013-01-31 20:59:00,
2013-01-31 16:04:00,34.5,4.0,29.32,North,0,0.0,0.0,27,0.00,,OVC075,0.94,VWS V13.01,2013-01-31 21:04:00,
2013-01-31 16:09:00,34.5,4.0,29.32,North,0,0.0,0.0,27,0.00,,OVC075,0.94,VWS V13.01,2013-01-31 21:09:00,
2013-01-31 16:14:00,34.3,3.8,29.32,North,0,0.0,0.0,27,0.00,,OVC075,0.94,VWS V13.01,2013-01-31 21:14:00,
2013-01-31 16:19:00,34.3,3.8,29.32,North,0,0.0,0.0,27,0.00,,OVC075,0.94,VWS V13.01,2013-01-31 21:19:00,
2013-01-31 16:24:00,34.3,6.1,29.32,North,0,0.0,0.0,30,0.00,,OVC075,0.94,VWS V13.01,2013-01-31 21:24:00,
2013-01-31 16:29:00,34.3,6.1,29.32,North,0,0.0,0.0,30,0.00,,OVC075,0.94,VWS V13.01,2013-01-31 21:29:00,
2013-01-31 16:34:00,34.2,6.0,29.32,North,0,0.0,0.0,30,0.00,,OVC075,0.94,VWS V13.01,2013-01-31 21:34:00,
2013-01-31 16:39:00,34.2,6.0,29.35,North,0,0.0,0.0,30,0.00,,OVC075,0.94,VWS V13.01,2013-01-31 21:39:00,
2013-01-31 16:44:00,34.0,3.5,29.35,North,0,0.0,0.0,27,0.00,,OVC075,0.94,VWS V13.01,2013-01-31 21:44:00,
2013-01-31 16:49:00,33.8,3.4,29.35,North,0,0.0,0.0,27,0.00,,OVC075,0.94,VWS V13.01,2013-01-31 21:49:00,
2013-01-31 16:54:00,33.6,4.0,29.35,North,0,0.0,0.0,28,0.00,,OVC075,0.94,VWS V13.01,2013-01-31 21:54:00,
2013-01-31 16:59:00,33.3,3.7,29.35,North,0,0.0,0.0,28,0.00,,OVC075,0.94,VWS V13.01,2013-01-31 21:59:00,
2013-01-31 17:04:00,33.3,3.7,29.35,North,0,0.0,0.0,28,0.00,,OVC075,0.94,VWS V13.01,2013-01-31 22:04:00,
2013-01-31 17:09:00,33.3,3.7,29.35,North,0,0.0,0.0,28,0.00,,OVC075,0.94,VWS V13.01,2013-01-31 22:09:00,
2013-01-31 17:14:00,33.1,3.5,29.35,North,0,0.0,0.0,28,0.00,,OVC075,0.94,VWS V13.01,2013-01-31 22:14:00,
2013-01-31 17:19:00,33.1,3.5,29.35,North,0,0.0,0.0,28,0.00,,OVC075,0.94,VWS V13.01,2013-01-31 22:19:00,
2013-01-31 17:24:00,32.7,3.2,29.35,North,0,0.0,0.0,28,0.00,,OVC075,0.94,VWS V13.01,2013-01-31 22:24:00,
2013-01-31 17:29:00,32.5,3.1,29.35,North,0,0.0,0.0,28,0.00,,OVC075,0.94,VWS V13.01,2013-01-31 22:29:00,
2013-01-31 17:34:00,32.4,2.9,29.35,North,0,0.0,0.0,28,0.00,,OVC075,0.94,VWS V13.01,2013-01-31 22:34:00,
2013-01-31 17:39:00,32.2,4.2,29.38,North,0,0.0,0.0,30,0.00,,OVC075,0.94,VWS V13.01,2013-01-31 22:39:00,
2013-01-31 17:44:00,32.0,4.1,29.38,North,0,0.0,0.0,30,0.00,,OVC075,0.94,VWS V13.01,2013-01-31 22:44:00,
2013-01-31 17:49:00,31.8,3.9,29.38,North,0,0.0,0.0,30,0.00,,OVC075,0.94,VWS V13.01,2013-01-31 22:49:00,
2013-01-31 17:54:00,31.6,3.8,29.38,North,0,0.0,0.0,30,0.00,,OVC075,0.94,VWS V13.01,2013-01-31 22:54:00,
2013-01-31 17:59:00,31.3,3.5,29.38,North,0,0.0,0.0,30,0.00,,OVC075,0.94,VWS V13.01,2013-01-31 22:59:00,
2013-01-31 18:04:00,31.1,3.3,29.38,North,0,0.0,0.0,30,0.00,,OVC075,0.94,VWS V13.01,2013-01-31 23:04:00,
2013-01-31 18:09:00,31.1,4.0,29.41,North,0,0.0,0.0,31,0.00,,OVC075,0.94,VWS V13.01,2013-01-31 23:09:00,
2013-01-31 18:14:00,30.9,3.8,29.41,North,0,0.0,0.0,31,0.00,,OVC075,0.94,VWS V13.01,2013-01-31 23:14:00,
2013-01-31 18:19:00,30.9,3.8,29.41,North,0,0.0,0.0,31,0.00,,OVC075,0.94,VWS V13.01,2013-01-31 23:19:00,
2013-01-31 18:24:00,30.9,3.8,29.38,North,0,0.0,0.0,31,0.00,,OVC075,0.94,VWS V13.01,2013-01-31 23:24:00,
2013-01-31 18:29:00,30.7,3.7,29.38,North,0,0.0,0.0,31,0.00,,OVC075,0.94,VWS V13.01,2013-01-31 23:29:00,
2013-01-31 18:34:00,30.9,3.8,29.38,North,0,0.0,0.0,31,0.00,,OVC075,0.94,VWS V13.01,2013-01-31 23:34:00,
2013-01-31 18:39:00,31.1,4.0,29.41,North,0,0.0,0.0,31,0.00,,OVC075,0.94,VWS V13.01,2013-01-31 23:39:00,
2013-01-31 18:44:00,31.1,4.0,29.41,North,0,0.0,0.0,31,0.00,,OVC075,0.94,VWS V13.01,2013-01-31 23:44:00,
2013-01-31 18:49:00,30.9,3.8,29.41,North,0,0.0,0.0,31,0.00,,OVC075,0.94,VWS V13.01,2013-01-31 23:49:00,
2013-01-31 18:54:00,30.7,3.0,29.44,North,0,0.0,0.0,30,0.00,,FEW050,0.94,VWS V13.01,2013-01-31 23:54:00,
2013-01-31 18:59:00,30.6,2.8,29.44,North,0,0.0,0.0,30,0.00,,FEW050,0.94,VWS V13.01,2013-01-31 23:59:00,
2013-01-31 19:04:00,30.6,2.8,29.44,North,0,0.0,0.0,30,0.00,,FEW050,0.94,VWS V13.01,2013-02-01 00:04:00,
2013-01-31 19:09:00,30.4,2.7,29.44,North,0,0.0,0.0,30,0.00,,FEW050,0.94,VWS V13.01,2013-02-01 00:09:00,
2013-01-31 19:14:00,30.2,3.2,29.44,North,0,0.0,0.0,31,0.00,,FEW050,0.94,VWS V13.01,2013-02-01 00:14:00,
2013-01-31 19:19:00,30.2,3.2,29.44,North,0,0.0,0.0,31,0.00,,FEW050,0.94,VWS V13.01,2013-02-01 00:19:00,
2013-01-31 19:24:00,30.2,3.2,29.44,North,0,0.0,0.0,31,0.00,,FEW050,0.94,VWS V13.01,2013-02-01 00:24:00,
2013-01-31 19:29:00,30.2,3.2,29.44,North,0,0.0,0.0,31,0.00,,FEW050,0.94,VWS V13.01,2013-02-01 00:29:00,
2013-01-31 19:34:00,30.2,3.2,29.44,North,0,0.0,0.0,31,0.00,,FEW050,0.94,VWS V13.01,2013-02-01 00:34:00,
2013-01-31 19:39:00,30.0,3.1,29.47,North,0,0.0,0.0,31,0.00,,FEW050,0.94,VWS V13.01,2013-02-01 00:39:00,
2013-01-31 19:44:00,29.8,2.9,29.47,North,0,0.0,0.0,31,0.00,,FEW050,0.94,VWS V13.01,2013-02-01 00:44:00,
2013-01-31 19:49:00,29.7,2.7,29.47,North,0,0.0,0.0,31,0.00,,FEW050,0.94,VWS V13.01,2013-02-01 00:49:00,
2013-01-31 19:54:00,29.5,2.6,29.47,North,0,0.0,0.0,31,0.00,,CLR,0.94,VWS V13.01,2013-02-01 00:54:00,
2013-01-31 19:59:00,29.3,2.4,29.47,North,0,0.0,0.0,31,0.00,,CLR,0.94,VWS V13.01,2013-02-01 00:59:00,
2013-01-31 20:04:00,28.9,2.1,29.47,North,0,0.0,0.0,31,0.00,,CLR,0.94,VWS V13.01,2013-02-01 01:04:00,
2013-01-31 20:09:00,28.8,2.0,29.47,North,0,0.0,0.0,31,0.00,,CLR,0.94,VWS V13.01,2013-02-01 01:09:00,
2013-01-31 20:14:00,28.6,1.8,29.47,North,0,0.0,0.0,31,0.00,,CLR,0.94,VWS V13.01,2013-02-01 01:14:00,
2013-01-31 20:19:00,28.6,1.8,29.47,North,0,0.0,0.0,31,0.00,,CLR,0.94,VWS V13.01,2013-02-01 01:19:00,
2013-01-31 20:24:00,28.4,1.6,29.47,North,0,0.0,0.0,31,0.00,,CLR,0.94,VWS V13.01,2013-02-01 01:24:00,
2013-01-31 20:29:00,28.4,1.6,29.47,North,0,0.0,0.0,31,0.00,,CLR,0.94,VWS V13.01,2013-02-01 01:29:00,
2013-01-31 20:34:00,28.4,1.6,29.47,North,0,0.0,0.0,31,0.00,,CLR,0.94,VWS V13.01,2013-02-01 01:34:00,
2013-01-31 20:39:00,28.6,1.8,29.47,North,0,0.0,0.0,31,0.00,,CLR,0.94,VWS V13.01,2013-02-01 01:39:00,
2013-01-31 20:44:00,28.6,1.8,29.47,North,0,0.0,0.0,31,0.00,,CLR,0.94,VWS V13.01,2013-02-01 01:44:00,
2013-01-31 20:49:00,28.4,1.6,29.47,North,0,0.0,0.0,31,0.00,,CLR,0.94,VWS V13.01,2013-02-01 01:49:00,
2013-01-31 20:54:00,28.4,1.6,29.47,North,0,0.0,0.0,31,0.00,,FEW050,0.94,VWS V13.01,2013-02-01 01:54:00,
2013-01-31 20:59:00,28.2,1.5,29.47,North,0,0.0,0.0,31,0.00,,FEW050,0.94,VWS V13.01,2013-02-01 01:59:00,
2013-01-31 21:04:00,28.2,1.5,29.47,North,0,0.0,0.0,31,0.00,,FEW050,0.94,VWS V13.01,2013-02-01 02:04:00,
2013-01-31 21:09:00,28.2,1.5,29.47,North,0,0.0,0.0,31,0.00,,FEW050,0.94,VWS V13.01,2013-02-01 02:09:00,
2013-01-31 21:14:00,28.2,1.5,29.47,North,0,0.0,0.0,31,0.00,,FEW050,0.94,VWS V13.01,2013-02-01 02:14:00,
2013-01-31 21:19:00,28.4,1.6,29.47,North,0,0.0,0.0,31,0.00,,FEW050,0.94,VWS V13.01,2013-02-01 02:19:00,
2013-01-31 21:24:00,28.2,1.5,29.47,North,0,0.0,0.0,31,0.00,,FEW050,0.94,VWS V13.01,2013-02-01 02:24:00,
2013-01-31 21:29:00,28.0,1.3,29.47,North,0,0.0,0.0,31,0.00,,FEW050,0.94,VWS V13.01,2013-02-01 02:29:00,
2013-01-31 21:34:00,27.9,1.2,29.47,North,0,0.0,0.0,31,0.00,,FEW050,0.94,VWS V13.01,2013-02-01 02:34:00,
2013-01-31 21:39:00,27.9,1.2,29.49,North,0,0.0,0.0,31,0.00,,FEW050,0.94,VWS V13.01,2013-02-01 02:39:00,
2013-01-31 21:44:00,27.9,1.2,29.49,North,0,0.0,0.0,31,0.00,,FEW050,0.94,VWS V13.01,2013-02-01 02:44:00,
2013-01-31 21:49:00,27.9,1.2,29.49,North,0,0.0,0.0,31,0.00,,FEW050,0.94,VWS V13.01,2013-02-01 02:49:00,
2013-01-31 21:54:00,27.7,1.0,29.49,North,0,0.0,0.0,31,0.00,,CLR,0.94,VWS V13.01,2013-02-01 02:54:00,
2013-01-31 21:59:00,27.7,-1.2,29.49,North,0,0.0,0.0,28,0.00,,CLR,0.94,VWS V13.01,2013-02-01 02:59:00,
2013-01-31 22:04:00,27.7,-1.2,29.49,North,0,0.0,0.0,28,0.00,,CLR,0.94,VWS V13.01,2013-02-01 03:04:00,
2013-01-31 22:09:00,27.5,-1.3,29.49,North,0,0.0,0.0,28,0.00,,CLR,0.94,VWS V13.01,2013-02-01 03:09:00,
2013-01-31 22:15:00,27.5,-1.3,29.49,North,0,0.0,0.0,28,0.00,,CLR,0.94,VWS V13.01,2013-02-01 03:15:00,
2013-01-31 22:19:00,27.3,0.7,29.49,North,0,0.0,0.0,31,0.00,,CLR,0.94,VWS V13.01,2013-02-01 03:19:00,
2013-01-31 22:24:00,27.1,0.5,29.49,North,0,0.0,0.0,31,0.00,,CLR,0.94,VWS V13.01,2013-02-01 03:24:00,
2013-01-31 22:29:00,27.1,0.5,29.49,North,0,0.0,0.0,31,0.00,,CLR,0.94,VWS V13.01,2013-02-01 03:29:00,
2013-01-31 22:34:00,27.0,0.4,29.49,North,0,0.0,0.0,31,0.00,,CLR,0.94,VWS V13.01,2013-02-01 03:34:00,
2013-01-31 22:39:00,27.1,0.5,29.49,North,0,0.0,0.0,31,0.00,,CLR,0.94,VWS V13.01,2013-02-01 03:39:00,
2013-01-31 22:45:00,27.1,0.5,29.49,North,0,0.0,0.0,31,0.00,,CLR,0.94,VWS V13.01,2013-02-01 03:45:00,
2013-01-31 22:50:00,27.1,0.5,29.49,North,0,0.0,0.0,31,0.00,,CLR,0.94,VWS V13.01,2013-02-01 03:50:00,
2013-01-31 22:55:00,27.3,0.7,29.49,North,0,0.0,0.0,31,0.00,,CLR,0.94,VWS V13.01,2013-02-01 03:55:00,
2013-01-31 23:00:00,27.1,0.5,29.49,North,0,0.0,0.0,31,0.00,,CLR,0.94,VWS V13.01,2013-02-01 04:00:00,
2013-01-31 23:05:00,27.1,0.5,29.49,North,0,0.0,0.0,31,0.00,,CLR,0.94,VWS V13.01,2013-02-01 04:05:00,
2013-01-31 23:10:00,27.0,0.4,29.49,North,0,0.0,0.0,31,0.00,,CLR,0.94,VWS V13.01,2013-02-01 04:10:00,
2013-01-31 23:15:00,27.0,0.4,29.49,North,0,0.0,0.0,31,0.00,,CLR,0.94,VWS V13.01,2013-02-01 04:15:00,
2013-01-31 23:20:00,27.0,0.4,29.49,North,0,0.0,0.0,31,0.00,,CLR,0.94,VWS V13.01,2013-02-01 04:20:00,
2013-01-31 23:25:00,26.8,0.2,29.49,North,0,0.0,0.0,31,0.00,,CLR,0.94,VWS V13.01,2013-02-01 04:25:00,
2013-01-31 23:30:00,26.6,0.1,29.49,North,0,0.0,0.0,31,0.00,,CLR,0.94,VWS V13.01,2013-02-01 04:30:00,
2013-01-31 23:35:00,26.6,0.1,29.49,North,0,0.0,0.0,31,0.00,,CLR,0.94,VWS V13.01,2013-02-01 04:35:00,
2013-01-31 23:40:00,26.4,-0.1,29.49,North,0,0.0,0.0,31,0.00,,CLR,0.94,VWS V13.01,2013-02-01 04:40:00,
2013-01-31 23:45:00,26.6,0.1,29.49,North,0,0.0,0.0,31,0.00,,CLR,0.94,VWS V13.01,2013-02-01 04:45:00,
2013-01-31 23:50:00,26.4,-0.1,29.49,North,0,0.0,0.0,31,0.00,,CLR,0.94,VWS V13.01,2013-02-01 04:50:00,
2013-01-31 23:55:00,26.2,-0.3,29.52,North,0,0.0,0.0,31,0.00,,BKN050,0.94,VWS V13.01,2013-02-01 04:55:00,